Zell, Missouri
Current Conditions -  °F | °C
As of 10:35 AM on Friday 19 Dec 2014 (Local Time) from KSAR Reporting Station
Overcast Overcast  
Wind Chill: 32°   Ceiling: 3500
Heat Index: 32°   Visibility: 10mi
Dew Point: 28°   Wind: 0mph
Humidity: 83%   Direction: NA
Pressure: 30.34"   Gusts: NA
Location:  37.9762°N, 90.0499°W
Report Text: KSAR 191635Z AUTO 00000KT 10SM OVC035 00/M02 A3034 RMK AO2 T00011024
Loading
Personal Weather Stations






























Interactive Weather Map New forecast layout! Learn more

10-Day Weather Forecast

Advertisements
Track Severe Weather on mobile